CYZP Airport Information

Runway Information
Runway 12 Length 5120 ft width 150 ft
Elevation 17 ft Threshold 0 ft Heading 144
Runway 30 Length 5120 ft Width 150 ft
Elevation 21 ft Threshold 0 ft Heading 324
Airport Frequencies
Type A/G Name TERRACE RD Frequency 122.3 MHZ
Type AWOS Name AWOS Frequency 122.55 MHZ
Type CNTR Name VANCOUVER Frequency 133.4 MHZ
Type RCO Name PACIFIC RD Frequency 126.7 MHZ
Airport Navaids
Type VORTAC Name Sandspit Frequency 114100 KHZ
Type NDB Name Sandspit Frequency 368 KHZ
Type NDB Name Dead Tree Frequency 248 KHZ
Airport Weather Information & NOTAM
ADDS - METARS form results

(2105 UTC 16 April 2021)
Data provider http://aviationweather.gov/metar/data/
 
Forecast for: CYZP (SANDSPIT AIRPORT, BC, CA)
Text: TAF CYZP 161838Z 1619/1707 VRB03KT P6SM SKC RMK FCST BASED ON AUTO OBS. NXT FCST BY 170100Z
Forecast period: 1900 UTC 16 April 2021 to 0700 UTC 17 April 2021
Forecast type: FROM: standard forecast or significant change
Winds: variable direction winds at 3 MPH (3 knots; 1.5 m/s)
Visibility: 6 or more miles (10+ km)
Clouds: clear skies
Weather: no significant weather forecast for this period